Rivolta Afb, Italy

6:28 AM CEST on April 24, 2017 (GMT +0200)
Rivolto Mil | | Change Station

Elev 174 ft 45.98 °N, 13.03 °E | Updated 33 minutes ago

Scattered Clouds
Scattered Clouds
50 °F
Feels Like 50 °F
N
2
Wind Variable Wind from NE

Today
High -- | Low -- °F
--% Chance of Precip.
Yesterday
High -- | Low -- °F
Precip. -- in
Pressure 30.12 in
Visibility 6.2 miles
Clouds Scattered Clouds 7000 ft
Scattered Clouds 8000 ft
Dew Point 43 °F
Humidity 76%
Rainfall 0.00 in
Snow Depth Not available.
6:06 AM 8:06 PM
Waning Crescent, 8% visible
METAR LIPI 240355Z 04002KT 9999 SCT070 SCT080 10/06 Q1020 RMK BKN VIS MIN 9999 WIND THR06 WIND THR24 BLU
Pressure 30.12 in
Visibility 6.2 miles
Clouds Scattered Clouds 7000 ft
Scattered Clouds 8000 ft
Dew Point 43 °F
Humidity 76%
Rainfall 0.00 in
Snow Depth Not available.
6:06 AM 8:06 PM
Waning Crescent, 8% visible
METAR LIPI 240355Z 04002KT 9999 SCT070 SCT080 10/06 Q1020 RMK BKN VIS MIN 9999 WIND THR06 WIND THR24 BLU

Get Severe Weather Alerts

Thanks for signing up!

Be on the lookout for a verification email in your inbox.

You'll start receiving the daily forecast at 8 AM.

×

10-Day Weather Forecast

×

Almanac

Astronomy

Apr. 24, 2017 Rise Set
Actual Time
Civil Twilight
Nautical Twilight
Astronomical Twilight
Moon
Length of Visible Light
Length of Day
Tomorrow will be .
, % of the Moon is Illuminated

Today's Extremes

Country Highs Country Lows

Community

WunderPhotos

WunderBlog® & News

Nearby

Air Quality

  Air Quality AQ Index Pollutant
Not available.

Snow Depth

Station Depth Elevation

Earthquake Activity

City Distance Mag. Time & Date
Minimum magnitude displayed is 2.5.

Coastal Water Temperatures

Place Temperature

Stations

Nearby Weather Stations

Station Location Temp. Windchill Dew Point Humidity Wind Precip. Elev Updated Type